createdAt,value
2023-02-14T00:01:30.423Z,-0.91
2023-02-14T00:04:00.638Z,-0.93
2023-02-14T00:06:27.835Z,-0.98
2023-02-14T00:08:56.720Z,-0.96
2023-02-14T00:11:23.276Z,-1.05
2023-02-14T00:14:10.974Z,-1.04
2023-02-14T00:16:37.571Z,-1.22
2023-02-14T00:19:06.779Z,-1.25
2023-02-14T00:21:36.192Z,-1.24
2023-02-14T00:24:04.910Z,-1.31
2023-02-14T00:26:31.527Z,-1.34
2023-02-14T00:29:00.287Z,-1.27
2023-02-14T00:31:29.531Z,-1.16
2023-02-14T00:33:58.543Z,-1.03
2023-02-14T00:36:27.391Z,-0.94
2023-02-14T00:38:53.936Z,-0.95
2023-02-14T00:41:23.333Z,-0.81
2023-02-14T00:43:52.146Z,-0.89
2023-02-14T00:46:23.362Z,-0.94
2023-02-14T00:48:50.494Z,-0.88
2023-02-14T00:51:22.604Z,-0.70
2023-02-14T00:53:53.004Z,-0.71
2023-02-14T00:56:20.536Z,-0.75
2023-02-14T00:58:47.531Z,-0.65
2023-02-14T01:01:17.886Z,-0.59
2023-02-14T01:03:47.588Z,-0.50
2023-02-14T01:06:14.198Z,-0.41
2023-02-14T01:08:43.034Z,-0.59
2023-02-14T01:11:16.035Z,-0.61
2023-02-14T01:13:43.038Z,-0.67
2023-02-14T01:16:12.846Z,-1.05
2023-02-14T01:18:39.804Z,-1.23
2023-02-14T01:21:16.463Z,-0.94
2023-02-14T01:23:43.960Z,-0.90
2023-02-14T01:26:12.395Z,-1.00
2023-02-14T01:28:39.426Z,-1.04
2023-02-14T01:31:11.893Z,-1.05
2023-02-14T01:33:43.252Z,-1.08
2023-02-14T01:36:22.773Z,-1.04
2023-02-14T01:38:53.142Z,-0.98
2023-02-14T01:41:25.947Z,-1.09
2023-02-14T01:44:15.855Z,-1.11
2023-02-14T01:46:45.030Z,-1.08
2023-02-14T01:49:21.721Z,-1.02
2023-02-14T01:52:04.309Z,-1.10
2023-02-14T01:54:34.089Z,-1.13
2023-02-14T01:57:06.670Z,-1.01
2023-02-14T01:59:38.531Z,-1.00
2023-02-14T02:02:08.546Z,-0.95
2023-02-14T02:04:41.800Z,-1.17
2023-02-14T02:07:17.665Z,-1.06
2023-02-14T02:09:49.298Z,-0.92
2023-02-14T02:12:18.485Z,-0.96
2023-02-14T02:14:47.540Z,-0.97
2023-02-14T02:17:30.620Z,-0.91
2023-02-14T02:20:15.820Z,-1.07
2023-02-14T02:23:09.456Z,-0.94
2023-02-14T02:25:36.119Z,-0.81
2023-02-14T02:28:17.637Z,-0.80
2023-02-14T02:31:03.221Z,-0.73
2023-02-14T02:33:32.627Z,-0.76
2023-02-14T02:36:19.170Z,-0.69
2023-02-14T02:38:55.349Z,-0.63
2023-02-14T02:41:31.027Z,-0.73
2023-02-14T02:44:15.904Z,-0.73
2023-02-14T02:47:01.367Z,-0.74
2023-02-14T02:50:11.846Z,-0.68
2023-02-14T02:53:03.361Z,-0.63
2023-02-14T02:56:01.898Z,-0.69
2023-02-14T02:59:02.445Z,-0.67
2023-02-14T03:01:41.433Z,-0.72
2023-02-14T03:04:30.582Z,-0.73
2023-02-14T03:06:59.123Z,-0.75
2023-02-14T03:09:25.589Z,-0.69
2023-02-14T03:12:18.278Z,-0.72
2023-02-14T03:14:57.858Z,-0.73
2023-02-14T03:17:36.376Z,-0.78
2023-02-14T03:20:29.549Z,-0.73
2023-02-14T03:23:11.171Z,-0.88
2023-02-14T03:26:06.257Z,-0.74
2023-02-14T03:28:47.481Z,-0.65
2023-02-14T03:31:22.862Z,-0.75
2023-02-14T03:34:17.581Z,-0.76
2023-02-14T03:37:07.382Z,-0.77
2023-02-14T03:39:33.835Z,-0.76
2023-02-14T03:42:09.726Z,-0.71
2023-02-14T03:44:39.763Z,-0.66
2023-02-14T03:47:13.331Z,-0.66
2023-02-14T03:49:48.774Z,-0.73
2023-02-14T03:52:17.012Z,-0.67
2023-02-14T03:54:46.648Z,-0.61
2023-02-14T03:57:32.883Z,-0.61
2023-02-14T04:00:02.619Z,-0.69
2023-02-14T04:02:41.580Z,-0.77
2023-02-14T04:05:15.878Z,-0.84
2023-02-14T04:07:47.740Z,-0.87
2023-02-14T04:10:20.124Z,-0.78
2023-02-14T04:12:47.028Z,-0.84
2023-02-14T04:15:14.680Z,-0.88
2023-02-14T04:18:00.195Z,-0.78
2023-02-14T04:20:27.842Z,-0.73
2023-02-14T04:22:55.595Z,-0.78
2023-02-14T04:25:23.865Z,-0.72
2023-02-14T04:27:50.455Z,-0.68
2023-02-14T04:30:18.153Z,-0.57
2023-02-14T04:32:47.051Z,-0.54
2023-02-14T04:35:13.800Z,-0.40
2023-02-14T04:37:40.568Z,-0.37
2023-02-14T04:40:10.487Z,-0.36
2023-02-14T04:42:37.048Z,-0.50
2023-02-14T04:45:06.214Z,-0.58
2023-02-14T04:47:32.796Z,-0.55
2023-02-14T04:50:01.587Z,-0.52
2023-02-14T04:52:28.214Z,-0.50
2023-02-14T04:54:57.039Z,-0.59
2023-02-14T04:57:23.626Z,-0.60
2023-02-14T04:59:52.405Z,-0.58
2023-02-14T05:02:19.001Z,-0.58
2023-02-14T05:04:50.346Z,-0.52
2023-02-14T05:07:19.387Z,-0.60
2023-02-14T05:09:50.832Z,-0.58
2023-02-14T05:12:17.519Z,-0.57
2023-02-14T05:14:46.858Z,-0.55
2023-02-14T05:17:16.875Z,-0.48
2023-02-14T05:19:43.431Z,-0.64
2023-02-14T05:22:10.101Z,-0.69
2023-02-14T05:24:36.682Z,-0.64
2023-02-14T05:27:03.369Z,-0.70
2023-02-14T05:29:32.135Z,-0.63
2023-02-14T05:31:58.806Z,-0.65
2023-02-14T05:34:25.427Z,-0.78
2023-02-14T05:36:52.025Z,-0.67
2023-02-14T05:39:18.610Z,-0.72
2023-02-14T05:41:47.627Z,-0.65
2023-02-14T05:44:19.181Z,-0.63
2023-02-14T05:46:48.148Z,-0.61
2023-02-14T05:49:14.804Z,-0.62
2023-02-14T05:51:41.381Z,-0.57
2023-02-14T05:54:10.024Z,-0.59
2023-02-14T05:56:42.317Z,-0.61
2023-02-14T05:59:08.902Z,-0.58
2023-02-14T06:01:37.615Z,-0.55
2023-02-14T06:04:07.215Z,-0.54
2023-02-14T06:06:36.843Z,-0.60
2023-02-14T06:09:03.574Z,-0.54
2023-02-14T06:11:32.618Z,-0.49
2023-02-14T06:13:59.174Z,-0.41
2023-02-14T06:16:25.786Z,-0.50
2023-02-14T06:18:52.328Z,-0.64
2023-02-14T06:21:18.844Z,-0.62
2023-02-14T06:23:45.384Z,-0.62
2023-02-14T06:26:14.431Z,-0.67
2023-02-14T06:28:41.075Z,-0.68
2023-02-14T06:31:07.729Z,-0.71
2023-02-14T06:33:36.516Z,-0.64
2023-02-14T06:36:03.099Z,-0.67
2023-02-14T06:38:31.820Z,-0.72
2023-02-14T06:41:13.150Z,-0.73
2023-02-14T06:43:39.731Z,-0.79
2023-02-14T06:46:09.059Z,-0.81
2023-02-14T06:48:38.076Z,-0.81
2023-02-14T06:51:09.998Z,-0.82
2023-02-14T06:53:39.031Z,-0.82
2023-02-14T06:56:05.930Z,-0.79
2023-02-14T06:58:40.290Z,-0.78
2023-02-14T07:01:09.094Z,-0.72
2023-02-14T07:03:35.660Z,-0.69
2023-02-14T07:06:02.398Z,-0.65
2023-02-14T07:08:28.977Z,-0.59
2023-02-14T07:11:02.314Z,-0.61
2023-02-14T07:13:32.176Z,-0.64
2023-02-14T07:16:01.505Z,-0.79
2023-02-14T07:18:31.635Z,-0.71
2023-02-14T07:21:00.885Z,-0.84
2023-02-14T07:23:30.074Z,-0.75
2023-02-14T07:25:58.828Z,-0.71
2023-02-14T07:28:25.354Z,-0.74
2023-02-14T07:30:54.718Z,-0.69
2023-02-14T07:33:21.298Z,-0.74
2023-02-14T07:35:50.160Z,-0.69
2023-02-14T07:38:16.666Z,-0.67
2023-02-14T07:40:43.233Z,-0.65
2023-02-14T07:43:10.167Z,-0.62
2023-02-14T07:45:39.121Z,-0.61
2023-02-14T07:48:05.965Z,-0.63
2023-02-14T07:50:34.868Z,-0.58
2023-02-14T07:53:01.464Z,-0.60
2023-02-14T07:55:30.859Z,-0.54
2023-02-14T07:57:59.512Z,-0.52
2023-02-14T08:00:26.391Z,-0.65
2023-02-14T08:02:53.203Z,-0.46
2023-02-14T08:05:22.674Z,-0.56
2023-02-14T08:07:51.475Z,-0.46
2023-02-14T08:10:20.614Z,-0.40
2023-02-14T08:12:59.126Z,-0.38
2023-02-14T08:15:53.903Z,-0.34
2023-02-14T08:18:23.182Z,-0.27
2023-02-14T08:20:50.066Z,-0.22
2023-02-14T08:23:18.740Z,0.00
2023-02-14T08:25:48.206Z,0.09
2023-02-14T08:28:22.205Z,0.04
2023-02-14T08:30:51.261Z,-0.10
2023-02-14T08:33:23.373Z,-0.03
2023-02-14T08:35:52.047Z,-0.06
2023-02-14T08:38:22.098Z,-0.12
2023-02-14T08:40:48.784Z,-0.16
2023-02-14T08:43:18.119Z,-0.10
2023-02-14T08:45:44.985Z,-0.04
2023-02-14T08:48:18.078Z,-0.02
2023-02-14T08:50:44.649Z,-0.12
2023-02-14T08:53:17.104Z,-0.10
2023-02-14T08:55:43.714Z,-0.07
2023-02-14T08:58:13.234Z,-0.15
2023-02-14T09:00:40.093Z,-0.17
2023-02-14T09:03:10.638Z,-0.28
2023-02-14T09:05:37.252Z,-0.32
2023-02-14T09:08:03.957Z,-0.21
2023-02-14T09:10:32.609Z,-0.15
2023-02-14T09:13:04.336Z,-0.20
2023-02-14T09:15:33.186Z,-0.10
2023-02-14T09:18:01.899Z,0.01
2023-02-14T09:20:28.420Z,0.05
2023-02-14T09:22:58.750Z,0.12
2023-02-14T09:25:25.290Z,0.24
2023-02-14T09:27:57.158Z,0.26
2023-02-14T09:30:26.205Z,0.17
2023-02-14T09:32:55.072Z,0.35
2023-02-14T09:35:24.078Z,0.23
2023-02-14T09:37:52.730Z,0.10
2023-02-14T09:40:20.438Z,0.15
2023-02-14T09:43:18.463Z,0.07
2023-02-14T09:45:54.818Z,0.22
2023-02-14T09:48:34.023Z,0.24
2023-02-14T09:51:08.450Z,0.31
2023-02-14T09:53:42.174Z,0.39
2023-02-14T09:56:17.635Z,0.44
2023-02-14T09:59:14.828Z,0.47
2023-02-14T10:01:48.085Z,0.57
2023-02-14T10:04:40.767Z,0.52
2023-02-14T10:07:22.444Z,0.71
2023-02-14T10:10:02.754Z,0.56
2023-02-14T10:12:37.895Z,0.47
2023-02-14T10:15:23.961Z,0.54
2023-02-14T10:18:05.900Z,0.43
2023-02-14T10:20:35.250Z,0.65
2023-02-14T10:23:22.762Z,0.67
2023-02-14T10:25:54.083Z,0.57
2023-02-14T10:28:30.374Z,0.51
2023-02-14T10:31:04.402Z,0.73
2023-02-14T10:33:38.835Z,0.70
2023-02-14T10:36:18.713Z,0.67
2023-02-14T10:38:57.677Z,0.67
2023-02-14T10:41:42.258Z,0.62
2023-02-14T10:44:24.023Z,0.62
2023-02-14T10:46:59.527Z,0.66
2023-02-14T10:49:44.028Z,0.79
2023-02-14T10:52:22.844Z,0.77
2023-02-14T10:54:58.215Z,0.87
2023-02-14T10:57:51.051Z,0.98
2023-02-14T11:00:25.813Z,0.93
2023-02-14T11:03:00.088Z,1.09
2023-02-14T11:05:31.663Z,1.21
2023-02-14T11:08:01.977Z,1.10
2023-02-14T11:10:35.734Z,1.05
2023-02-14T11:13:02.312Z,1.18
2023-02-14T11:15:42.259Z,1.17
2023-02-14T11:18:36.108Z,1.18
2023-02-14T11:21:17.775Z,1.08
2023-02-14T11:23:48.894Z,1.08
2023-02-14T11:26:34.949Z,1.17
2023-02-14T11:29:07.166Z,1.24
2023-02-14T11:31:36.706Z,1.47
2023-02-14T11:34:20.857Z,1.48
2023-02-14T11:36:49.862Z,1.34
2023-02-14T11:39:31.284Z,1.35
2023-02-14T11:42:01.110Z,1.39
2023-02-14T11:44:29.911Z,1.41
2023-02-14T11:47:18.096Z,1.27
2023-02-14T11:50:17.839Z,1.53
2023-02-14T11:52:56.690Z,1.47
2023-02-14T11:55:26.077Z,1.37
2023-02-14T11:57:57.044Z,1.52
2023-02-14T12:00:27.165Z,1.41
2023-02-14T12:02:57.939Z,1.52
2023-02-14T12:05:35.559Z,1.62
2023-02-14T12:08:08.075Z,1.65
2023-02-14T12:10:42.050Z,1.48
2023-02-14T12:13:08.605Z,1.65
2023-02-14T12:15:44.067Z,1.66
2023-02-14T12:18:29.226Z,1.45
2023-02-14T12:20:59.881Z,1.73
2023-02-14T12:23:38.815Z,1.54
2023-02-14T12:26:25.531Z,1.93
2023-02-14T12:29:14.319Z,1.90
2023-02-14T12:31:43.125Z,1.97
2023-02-14T12:34:13.263Z,2.01
2023-02-14T12:37:06.854Z,1.96
2023-02-14T12:40:05.784Z,1.91
2023-02-14T12:43:04.544Z,2.19
2023-02-14T12:46:08.754Z,2.30
2023-02-14T12:48:51.700Z,2.18
2023-02-14T12:51:34.647Z,2.29
2023-02-14T12:54:25.910Z,2.42
2023-02-14T12:57:08.299Z,2.95
2023-02-14T13:00:05.884Z,2.62
2023-02-14T13:02:41.427Z,2.53
2023-02-14T13:05:31.804Z,2.66
2023-02-14T13:08:23.808Z,2.75
2023-02-14T13:11:02.068Z,2.97
2023-02-14T13:13:34.882Z,3.39
2023-02-14T13:16:32.385Z,3.32
2023-02-14T13:19:14.403Z,3.05
2023-02-14T13:21:45.294Z,3.29
2023-02-14T13:24:25.632Z,3.21
2023-02-14T13:26:56.489Z,3.00
2023-02-14T13:29:27.431Z,3.06
2023-02-14T13:31:58.803Z,2.99
2023-02-14T13:34:44.384Z,3.20
2023-02-14T13:37:15.934Z,3.30
2023-02-14T13:39:48.991Z,3.25
2023-02-14T13:42:50.714Z,3.32
2023-02-14T13:45:29.518Z,3.36
2023-02-14T13:48:19.722Z,3.50
2023-02-14T13:51:02.438Z,3.67
2023-02-14T13:53:32.093Z,3.74
2023-02-14T13:56:01.649Z,3.76
2023-02-14T13:58:30.944Z,3.67
2023-02-14T14:00:57.721Z,3.93
2023-02-14T14:03:27.744Z,3.87
2023-02-14T14:06:10.928Z,3.77
2023-02-14T14:08:37.640Z,4.18
2023-02-14T14:11:11.640Z,4.12
2023-02-14T14:13:43.170Z,4.20
2023-02-14T14:16:28.166Z,4.26
2023-02-14T14:18:58.764Z,4.18
2023-02-14T14:21:31.766Z,4.13
2023-02-14T14:24:20.604Z,4.16
2023-02-14T14:26:48.866Z,4.28
2023-02-14T14:29:23.402Z,4.11
2023-02-14T14:31:55.841Z,4.17
2023-02-14T14:34:29.945Z,4.28
2023-02-14T14:37:10.757Z,4.39
2023-02-14T14:39:40.590Z,4.22
2023-02-14T14:42:15.214Z,4.28
2023-02-14T14:45:02.022Z,4.10
2023-02-14T14:47:37.642Z,4.14
2023-02-14T14:50:07.726Z,4.20
2023-02-14T14:52:41.336Z,4.27
2023-02-14T14:55:19.721Z,4.26
2023-02-14T14:58:03.796Z,4.15
2023-02-14T15:00:37.245Z,4.17
2023-02-14T15:03:14.796Z,4.18
2023-02-14T15:05:47.005Z,4.14
2023-02-14T15:08:23.334Z,4.12
2023-02-14T15:10:58.686Z,4.06
2023-02-14T15:13:50.618Z,3.99
2023-02-14T15:16:21.493Z,4.16
2023-02-14T15:18:49.570Z,3.97
2023-02-14T15:21:16.896Z,3.92
2023-02-14T15:23:44.126Z,3.84
2023-02-14T15:26:18.075Z,3.87
2023-02-14T15:28:54.053Z,3.79
2023-02-14T15:31:20.925Z,3.81
2023-02-14T15:33:50.276Z,3.80
2023-02-14T15:36:21.172Z,3.81
2023-02-14T15:38:51.038Z,3.71
2023-02-14T15:41:20.086Z,3.76
2023-02-14T15:43:54.090Z,3.68
2023-02-14T15:46:33.240Z,3.61
2023-02-14T15:49:01.397Z,3.60
2023-02-14T15:51:37.437Z,3.50
2023-02-14T15:54:18.403Z,3.46
2023-02-14T15:56:49.376Z,3.39
2023-02-14T15:59:22.796Z,3.37
2023-02-14T16:01:53.895Z,3.33
2023-02-14T16:04:26.085Z,3.26
2023-02-14T16:07:20.572Z,3.16
2023-02-14T16:09:48.368Z,3.15
2023-02-14T16:12:31.431Z,3.06
2023-02-14T16:15:20.545Z,2.94
2023-02-14T16:17:50.923Z,2.89
2023-02-14T16:20:23.700Z,2.84
2023-02-14T16:22:50.896Z,2.76
2023-02-14T16:25:22.994Z,2.58
2023-02-14T16:27:54.377Z,2.43
2023-02-14T16:30:23.811Z,2.35
2023-02-14T16:32:52.596Z,2.24
2023-02-14T16:35:21.770Z,2.09
2023-02-14T16:37:51.679Z,1.98
2023-02-14T16:40:20.950Z,1.83
2023-02-14T16:42:49.976Z,1.67
2023-02-14T16:45:18.230Z,1.61
2023-02-14T16:47:49.178Z,1.55
2023-02-14T16:50:16.219Z,1.34
2023-02-14T16:52:46.627Z,1.23
2023-02-14T16:55:20.244Z,1.20
2023-02-14T16:57:53.366Z,1.01
2023-02-14T17:00:22.862Z,0.94
2023-02-14T17:02:49.958Z,0.95
2023-02-14T17:05:19.314Z,0.88
2023-02-14T17:07:45.831Z,0.69
2023-02-14T17:10:18.360Z,0.64
2023-02-14T17:12:53.160Z,0.55
2023-02-14T17:15:26.532Z,0.54
2023-02-14T17:17:59.393Z,0.47
2023-02-14T17:20:31.015Z,0.28
2023-02-14T17:22:58.309Z,0.26
2023-02-14T17:25:27.389Z,0.18
2023-02-14T17:27:56.513Z,0.26
2023-02-14T17:30:26.175Z,0.20
2023-02-14T17:32:52.706Z,0.07
2023-02-14T17:35:22.016Z,-0.07
2023-02-14T17:37:48.555Z,-0.16
2023-02-14T17:40:17.613Z,-0.12
2023-02-14T17:42:44.975Z,-0.16
2023-02-14T17:45:14.049Z,-0.01
2023-02-14T17:47:45.208Z,0.06
2023-02-14T17:50:13.191Z,0.13
2023-02-14T17:52:42.035Z,0.14
2023-02-14T17:55:11.430Z,0.13
2023-02-14T17:57:40.865Z,0.18
2023-02-14T18:00:11.818Z,0.09
2023-02-14T18:02:38.845Z,0.12
2023-02-14T18:05:08.189Z,0.14
2023-02-14T18:07:38.189Z,-0.04
2023-02-14T18:10:05.942Z,-0.21
2023-02-14T18:12:32.825Z,-0.13
2023-02-14T18:14:59.618Z,-0.06
2023-02-14T18:17:28.657Z,-0.06
2023-02-14T18:19:57.420Z,0.03
2023-02-14T18:22:24.846Z,0.03
2023-02-14T18:24:51.416Z,0.06
2023-02-14T18:27:18.001Z,0.08
2023-02-14T18:29:44.605Z,0.05
2023-02-14T18:32:16.046Z,0.11
2023-02-14T18:34:42.575Z,0.11
2023-02-14T18:37:15.187Z,0.10
2023-02-14T18:39:41.843Z,0.04
2023-02-14T18:42:08.595Z,0.03
2023-02-14T18:44:35.485Z,0.04
2023-02-14T18:47:06.462Z,-0.16
2023-02-14T18:49:35.299Z,-0.09
2023-02-14T18:52:01.941Z,-0.13
2023-02-14T18:54:32.079Z,-0.17
2023-02-14T18:56:58.688Z,-0.09
2023-02-14T18:59:25.203Z,0.01
2023-02-14T19:01:54.541Z,0.09
2023-02-14T19:04:24.099Z,0.20
2023-02-14T19:06:53.262Z,0.14
2023-02-14T19:09:22.358Z,0.07
2023-02-14T19:11:51.278Z,0.05
2023-02-14T19:14:18.367Z,0.11
2023-02-14T19:16:51.947Z,-0.02
2023-02-14T19:19:22.818Z,0.11
2023-02-14T19:21:53.077Z,0.05
2023-02-14T19:24:20.240Z,0.03
2023-02-14T19:26:47.262Z,-0.02
2023-02-14T19:29:18.257Z,-0.15
2023-02-14T19:31:48.753Z,-0.09
2023-02-14T19:34:29.679Z,-0.16
2023-02-14T19:36:58.856Z,-0.19
2023-02-14T19:39:25.704Z,-0.17
2023-02-14T19:41:52.363Z,-0.16
2023-02-14T19:44:21.083Z,-0.20
2023-02-14T19:46:51.040Z,-0.23
2023-02-14T19:49:19.776Z,-0.19
2023-02-14T19:51:52.342Z,-0.14
2023-02-14T19:54:25.629Z,-0.12
2023-02-14T19:56:53.872Z,-0.04
2023-02-14T19:59:21.786Z,-0.14
2023-02-14T20:01:56.447Z,-0.11
2023-02-14T20:04:28.545Z,-0.05
2023-02-14T20:06:56.119Z,-0.21
2023-02-14T20:09:23.592Z,-0.21
2023-02-14T20:11:57.792Z,-0.06
2023-02-14T20:14:30.511Z,-0.04
2023-02-14T20:17:00.316Z,-0.11
2023-02-14T20:19:35.704Z,-0.19
2023-02-14T20:22:04.764Z,0.01
2023-02-14T20:24:32.463Z,0.09
2023-02-14T20:27:00.469Z,0.05
2023-02-14T20:29:27.336Z,0.07
2023-02-14T20:32:03.313Z,0.17
2023-02-14T20:34:29.952Z,0.24
2023-02-14T20:36:59.313Z,0.25
2023-02-14T20:39:36.576Z,0.21
2023-02-14T20:42:04.222Z,0.08
2023-02-14T20:44:30.818Z,0.06
2023-02-14T20:46:57.593Z,0.08
2023-02-14T20:49:26.041Z,0.01
2023-02-14T20:51:56.025Z,0.01
2023-02-14T20:54:25.680Z,-0.23
2023-02-14T20:56:55.136Z,-0.10
2023-02-14T20:59:27.150Z,0.06
2023-02-14T21:01:55.372Z,-0.09
2023-02-14T21:04:22.963Z,-0.40
2023-02-14T21:06:49.612Z,-0.15
2023-02-14T21:09:18.510Z,-0.14
2023-02-14T21:11:45.159Z,-0.16
2023-02-14T21:14:14.288Z,-0.10
2023-02-14T21:16:43.220Z,-0.11
2023-02-14T21:19:09.845Z,-0.13
2023-02-14T21:21:39.710Z,-0.18
2023-02-14T21:24:14.680Z,-0.14
2023-02-14T21:26:41.741Z,0.05
2023-02-14T21:29:11.342Z,0.03
2023-02-14T21:31:38.654Z,-0.09
2023-02-14T21:34:08.124Z,-0.08
2023-02-14T21:36:37.956Z,-0.18
2023-02-14T21:39:07.683Z,-0.20
2023-02-14T21:41:35.230Z,-0.28
2023-02-14T21:44:07.655Z,-0.34
2023-02-14T21:46:38.872Z,-0.60
2023-02-14T21:49:24.580Z,-0.73
2023-02-14T21:51:51.300Z,-0.65
2023-02-14T21:54:18.000Z,-0.47
2023-02-14T21:56:44.817Z,-0.28
2023-02-14T21:59:11.647Z,-0.30
2023-02-14T22:01:42.528Z,-0.34
2023-02-14T22:04:11.431Z,-0.22
2023-02-14T22:06:40.281Z,-0.54
2023-02-14T22:09:07.506Z,-0.39
2023-02-14T22:11:35.305Z,-0.25
2023-02-14T22:14:04.665Z,-0.21
2023-02-14T22:16:31.355Z,-0.22
2023-02-14T22:19:00.236Z,-0.27
2023-02-14T22:21:33.354Z,-0.34
2023-02-14T22:24:01.352Z,-0.26
2023-02-14T22:26:34.649Z,-0.26
2023-02-14T22:29:02.496Z,-0.24
2023-02-14T22:31:33.435Z,-0.28
2023-02-14T22:34:03.079Z,-0.33
2023-02-14T22:36:31.836Z,-0.31
2023-02-14T22:39:00.715Z,-0.40
2023-02-14T22:41:30.065Z,-0.35
2023-02-14T22:43:58.903Z,-0.47
2023-02-14T22:46:28.082Z,-0.39
2023-02-14T22:48:56.262Z,-0.42
2023-02-14T22:51:24.201Z,-0.38
2023-02-14T22:53:53.345Z,-0.36
2023-02-14T22:56:25.601Z,-0.37
2023-02-14T22:58:56.901Z,-0.32
2023-02-14T23:01:31.278Z,-0.41
2023-02-14T23:04:00.150Z,-0.37
2023-02-14T23:06:33.701Z,-0.46
2023-02-14T23:09:05.993Z,-0.45
2023-02-14T23:11:36.523Z,-0.57
2023-02-14T23:14:24.408Z,-0.49
2023-02-14T23:17:10.210Z,-0.49
2023-02-14T23:19:56.052Z,-0.50
2023-02-14T23:22:34.650Z,-0.52
2023-02-14T23:25:07.636Z,-0.56
2023-02-14T23:27:43.525Z,-0.63
2023-02-14T23:30:15.113Z,-0.49
2023-02-14T23:32:42.469Z,-0.46
2023-02-14T23:35:12.095Z,-0.53
2023-02-14T23:37:41.782Z,-0.57
2023-02-14T23:40:11.772Z,-0.53
2023-02-14T23:42:38.319Z,-0.60
2023-02-14T23:45:24.180Z,-0.68
2023-02-14T23:47:52.848Z,-0.76
2023-02-14T23:50:19.387Z,-0.93
2023-02-14T23:52:48.886Z,-1.11
2023-02-14T23:55:15.402Z,-1.19
2023-02-14T23:57:42.017Z,-1.17
